sensor_id;sensor_type;location;lat;lon;timestamp;P1;durP1;ratioP1;P2;durP2;ratioP2
68921;SDS011;55959;51.244;5.724;2022-10-24T00:00:47;3.20;;;1.30;;
68921;SDS011;55959;51.244;5.724;2022-10-24T00:03:13;4.53;;;1.50;;
68921;SDS011;55959;51.244;5.724;2022-10-24T00:05:40;2.53;;;1.60;;
68921;SDS011;55959;51.244;5.724;2022-10-24T00:08:11;2.43;;;1.30;;
68921;SDS011;55959;51.244;5.724;2022-10-24T00:10:40;5.23;;;1.33;;
68921;SDS011;55959;51.244;5.724;2022-10-24T00:13:08;3.17;;;1.63;;
68921;SDS011;55959;51.244;5.724;2022-10-24T00:15:34;4.37;;;1.70;;
68921;SDS011;55959;51.244;5.724;2022-10-24T00:18:00;5.57;;;1.57;;
68921;SDS011;55959;51.244;5.724;2022-10-24T00:20:26;5.43;;;1.83;;
68921;SDS011;55959;51.244;5.724;2022-10-24T00:22:52;3.27;;;1.40;;
68921;SDS011;55959;51.244;5.724;2022-10-24T00:25:18;3.50;;;1.63;;
68921;SDS011;55959;51.244;5.724;2022-10-24T00:27:43;2.87;;;1.37;;
68921;SDS011;55959;51.244;5.724;2022-10-24T00:30:09;1.90;;;1.33;;
68921;SDS011;55959;51.244;5.724;2022-10-24T00:32:35;4.73;;;1.80;;
68921;SDS011;55959;51.244;5.724;2022-10-24T00:35:02;4.90;;;1.77;;
68921;SDS011;55959;51.244;5.724;2022-10-24T00:37:29;3.80;;;1.83;;
68921;SDS011;55959;51.244;5.724;2022-10-24T00:39:54;3.20;;;1.90;;
68921;SDS011;55959;51.244;5.724;2022-10-24T00:42:20;2.93;;;1.77;;
68921;SDS011;55959;51.244;5.724;2022-10-24T00:44:47;4.43;;;2.10;;
68921;SDS011;55959;51.244;5.724;2022-10-24T00:47:21;3.60;;;1.80;;
68921;SDS011;55959;51.244;5.724;2022-10-24T00:50:01;2.93;;;1.80;;
68921;SDS011;55959;51.244;5.724;2022-10-24T00:52:40;3.33;;;1.80;;
68921;SDS011;55959;51.244;5.724;2022-10-24T00:55:09;2.43;;;1.60;;
68921;SDS011;55959;51.244;5.724;2022-10-24T00:57:38;4.13;;;2.00;;
68921;SDS011;55959;51.244;5.724;2022-10-24T01:00:11;4.27;;;1.70;;
68921;SDS011;55959;51.244;5.724;2022-10-24T01:02:44;2.53;;;1.60;;
68921;SDS011;55959;51.244;5.724;2022-10-24T01:05:10;5.10;;;1.80;;
68921;SDS011;55959;51.244;5.724;2022-10-24T01:13:08;3.67;;;1.57;;
68921;SDS011;55959;51.244;5.724;2022-10-24T01:16:13;3.00;;;1.50;;
68921;SDS011;55959;51.244;5.724;2022-10-24T01:19:10;2.20;;;1.50;;
68921;SDS011;55959;51.244;5.724;2022-10-24T01:28:15;3.43;;;1.37;;
68921;SDS011;55959;51.244;5.724;2022-10-24T01:32:02;5.20;;;1.50;;
68921;SDS011;55959;51.244;5.724;2022-10-24T01:37:12;5.00;;;1.30;;
68921;SDS011;55959;51.244;5.724;2022-10-24T01:39:49;1.73;;;1.00;;
68921;SDS011;55959;51.244;5.724;2022-10-24T01:42:21;1.83;;;1.30;;
68921;SDS011;55959;51.244;5.724;2022-10-24T01:44:50;4.47;;;1.50;;
68921;SDS011;55959;51.244;5.724;2022-10-24T01:47:24;3.10;;;1.13;;
68921;SDS011;55959;51.244;5.724;2022-10-24T01:49:56;3.60;;;1.17;;
68921;SDS011;55959;51.244;5.724;2022-10-24T01:52:28;2.50;;;1.10;;
68921;SDS011;55959;51.244;5.724;2022-10-24T01:54:58;2.57;;;1.30;;
68921;SDS011;55959;51.244;5.724;2022-10-24T01:57:25;2.83;;;1.10;;
68921;SDS011;55959;51.244;5.724;2022-10-24T01:59:56;3.53;;;1.27;;
68921;SDS011;55959;51.244;5.724;2022-10-24T02:02:26;3.07;;;1.00;;
68921;SDS011;55959;51.244;5.724;2022-10-24T02:05:11;3.30;;;1.40;;
68921;SDS011;55959;51.244;5.724;2022-10-24T02:07:45;3.47;;;1.40;;
68921;SDS011;55959;51.244;5.724;2022-10-24T02:10:18;1.97;;;1.30;;
68921;SDS011;55959;51.244;5.724;2022-10-24T02:12:52;1.87;;;1.10;;
68921;SDS011;55959;51.244;5.724;2022-10-24T02:15:28;3.03;;;1.30;;
68921;SDS011;55959;51.244;5.724;2022-10-24T02:17:59;2.93;;;1.10;;
68921;SDS011;55959;51.244;5.724;2022-10-24T02:20:34;2.53;;;1.20;;
68921;SDS011;55959;51.244;5.724;2022-10-24T02:26:02;2.47;;;1.00;;
68921;SDS011;55959;51.244;5.724;2022-10-24T02:28:33;3.15;;;1.15;;
68921;SDS011;55959;51.244;5.724;2022-10-24T02:31:07;3.42;;;1.15;;
68921;SDS011;55959;51.244;5.724;2022-10-24T02:33:41;2.90;;;1.13;;
68921;SDS011;55959;51.244;5.724;2022-10-24T02:36:10;2.50;;;1.47;;
68921;SDS011;55959;51.244;5.724;2022-10-24T02:38:40;4.97;;;1.47;;
68921;SDS011;55959;51.244;5.724;2022-10-24T02:41:09;4.07;;;1.10;;
68921;SDS011;55959;51.244;5.724;2022-10-24T02:43:40;2.40;;;1.20;;
68921;SDS011;55959;51.244;5.724;2022-10-24T02:46:08;2.97;;;1.30;;
68921;SDS011;55959;51.244;5.724;2022-10-24T02:48:37;3.37;;;1.23;;
68921;SDS011;55959;51.244;5.724;2022-10-24T02:51:08;3.40;;;1.40;;
68921;SDS011;55959;51.244;5.724;2022-10-24T02:53:35;3.63;;;1.15;;
68921;SDS011;55959;51.244;5.724;2022-10-24T02:56:01;1.98;;;1.00;;
68921;SDS011;55959;51.244;5.724;2022-10-24T02:58:27;4.13;;;1.60;;
68921;SDS011;55959;51.244;5.724;2022-10-24T03:00:53;1.93;;;1.07;;
68921;SDS011;55959;51.244;5.724;2022-10-24T03:03:19;2.65;;;1.15;;
68921;SDS011;55959;51.244;5.724;2022-10-24T03:05:46;2.25;;;1.02;;
68921;SDS011;55959;51.244;5.724;2022-10-24T03:08:12;4.03;;;1.23;;
68921;SDS011;55959;51.244;5.724;2022-10-24T03:10:39;2.93;;;1.00;;
68921;SDS011;55959;51.244;5.724;2022-10-24T03:13:05;3.17;;;1.17;;
68921;SDS011;55959;51.244;5.724;2022-10-24T03:15:31;2.30;;;1.02;;
68921;SDS011;55959;51.244;5.724;2022-10-24T03:17:57;2.10;;;0.90;;
68921;SDS011;55959;51.244;5.724;2022-10-24T03:20:22;3.78;;;1.13;;
68921;SDS011;55959;51.244;5.724;2022-10-24T03:22:49;3.40;;;1.37;;
68921;SDS011;55959;51.244;5.724;2022-10-24T03:25:15;7.17;;;1.27;;
68921;SDS011;55959;51.244;5.724;2022-10-24T03:27:41;1.10;;;1.00;;
68921;SDS011;55959;51.244;5.724;2022-10-24T03:30:07;2.63;;;1.57;;
68921;SDS011;55959;51.244;5.724;2022-10-24T03:32:34;3.17;;;1.00;;
68921;SDS011;55959;51.244;5.724;2022-10-24T03:35:00;2.40;;;1.10;;
68921;SDS011;55959;51.244;5.724;2022-10-24T03:37:26;4.72;;;1.33;;
68921;SDS011;55959;51.244;5.724;2022-10-24T03:39:53;2.28;;;1.02;;
68921;SDS011;55959;51.244;5.724;2022-10-24T03:42:19;2.33;;;1.10;;
68921;SDS011;55959;51.244;5.724;2022-10-24T03:44:45;3.53;;;1.07;;
68921;SDS011;55959;51.244;5.724;2022-10-24T03:47:11;1.63;;;0.93;;
68921;SDS011;55959;51.244;5.724;2022-10-24T03:49:37;1.80;;;0.90;;
68921;SDS011;55959;51.244;5.724;2022-10-24T03:52:03;4.35;;;1.27;;
68921;SDS011;55959;51.244;5.724;2022-10-24T03:54:29;3.10;;;1.00;;
68921;SDS011;55959;51.244;5.724;2022-10-24T03:56:55;2.37;;;0.90;;
68921;SDS011;55959;51.244;5.724;2022-10-24T03:59:22;1.20;;;0.80;;
68921;SDS011;55959;51.244;5.724;2022-10-24T04:01:48;2.93;;;1.10;;
68921;SDS011;55959;51.244;5.724;2022-10-24T04:04:13;2.27;;;0.87;;
68921;SDS011;55959;51.244;5.724;2022-10-24T04:06:39;3.50;;;1.10;;
68921;SDS011;55959;51.244;5.724;2022-10-24T04:09:06;3.92;;;1.33;;
68921;SDS011;55959;51.244;5.724;2022-10-24T04:11:32;3.07;;;1.03;;
68921;SDS011;55959;51.244;5.724;2022-10-24T04:13:58;4.07;;;1.00;;
68921;SDS011;55959;51.244;5.724;2022-10-24T04:16:25;3.00;;;1.00;;
68921;SDS011;55959;51.244;5.724;2022-10-24T04:18:51;2.67;;;0.85;;
68921;SDS011;55959;51.244;5.724;2022-10-24T04:21:17;4.00;;;1.10;;
68921;SDS011;55959;51.244;5.724;2022-10-24T04:23:43;2.50;;;0.70;;
68921;SDS011;55959;51.244;5.724;2022-10-24T04:26:12;4.00;;;1.10;;
68921;SDS011;55959;51.244;5.724;2022-10-24T04:28:39;2.80;;;1.10;;
68921;SDS011;55959;51.244;5.724;2022-10-24T04:31:05;2.73;;;1.00;;
68921;SDS011;55959;51.244;5.724;2022-10-24T04:33:31;5.13;;;1.20;;
68921;SDS011;55959;51.244;5.724;2022-10-24T04:35:57;2.13;;;0.90;;
68921;SDS011;55959;51.244;5.724;2022-10-24T04:38:23;4.00;;;1.30;;
68921;SDS011;55959;51.244;5.724;2022-10-24T04:40:50;3.50;;;1.30;;
68921;SDS011;55959;51.244;5.724;2022-10-24T04:43:18;5.23;;;1.30;;
68921;SDS011;55959;51.244;5.724;2022-10-24T04:45:45;2.00;;;1.00;;
68921;SDS011;55959;51.244;5.724;2022-10-24T04:48:11;3.10;;;1.10;;
68921;SDS011;55959;51.244;5.724;2022-10-24T04:50:39;3.27;;;1.23;;
68921;SDS011;55959;51.244;5.724;2022-10-24T04:53:07;2.33;;;1.27;;
68921;SDS011;55959;51.244;5.724;2022-10-24T04:55:33;2.30;;;1.03;;
68921;SDS011;55959;51.244;5.724;2022-10-24T04:57:59;3.30;;;0.93;;
68921;SDS011;55959;51.244;5.724;2022-10-24T05:00:26;5.90;;;1.10;;
68921;SDS011;55959;51.244;5.724;2022-10-24T05:02:52;3.40;;;1.40;;
68921;SDS011;55959;51.244;5.724;2022-10-24T05:05:18;2.43;;;0.97;;
68921;SDS011;55959;51.244;5.724;2022-10-24T05:07:43;2.83;;;1.00;;
68921;SDS011;55959;51.244;5.724;2022-10-24T05:10:10;2.43;;;1.10;;
68921;SDS011;55959;51.244;5.724;2022-10-24T05:12:37;3.57;;;1.00;;
68921;SDS011;55959;51.244;5.724;2022-10-24T05:15:04;4.13;;;1.40;;
68921;SDS011;55959;51.244;5.724;2022-10-24T05:17:32;4.23;;;1.50;;
68921;SDS011;55959;51.244;5.724;2022-10-24T05:19:58;7.10;;;1.40;;
68921;SDS011;55959;51.244;5.724;2022-10-24T05:22:23;4.37;;;1.20;;
68921;SDS011;55959;51.244;5.724;2022-10-24T05:24:49;4.63;;;1.20;;
68921;SDS011;55959;51.244;5.724;2022-10-24T05:27:16;4.87;;;1.40;;
68921;SDS011;55959;51.244;5.724;2022-10-24T05:29:49;3.17;;;0.93;;
68921;SDS011;55959;51.244;5.724;2022-10-24T05:32:18;4.30;;;1.40;;
68921;SDS011;55959;51.244;5.724;2022-10-24T05:34:46;3.37;;;1.17;;
68921;SDS011;55959;51.244;5.724;2022-10-24T05:37:11;3.47;;;1.10;;
68921;SDS011;55959;51.244;5.724;2022-10-24T05:39:37;4.63;;;1.10;;
68921;SDS011;55959;51.244;5.724;2022-10-24T05:42:03;4.70;;;1.03;;
68921;SDS011;55959;51.244;5.724;2022-10-24T05:44:29;3.23;;;1.40;;
68921;SDS011;55959;51.244;5.724;2022-10-24T05:46:55;4.40;;;1.23;;
68921;SDS011;55959;51.244;5.724;2022-10-24T05:49:20;3.03;;;0.87;;
68921;SDS011;55959;51.244;5.724;2022-10-24T05:51:46;4.07;;;1.10;;
68921;SDS011;55959;51.244;5.724;2022-10-24T05:54:12;2.43;;;1.13;;
68921;SDS011;55959;51.244;5.724;2022-10-24T05:56:39;3.43;;;1.33;;
68921;SDS011;55959;51.244;5.724;2022-10-24T05:59:05;3.47;;;1.23;;
68921;SDS011;55959;51.244;5.724;2022-10-24T06:01:30;3.07;;;1.27;;
68921;SDS011;55959;51.244;5.724;2022-10-24T06:03:56;4.00;;;1.23;;
68921;SDS011;55959;51.244;5.724;2022-10-24T06:06:22;5.40;;;1.40;;
68921;SDS011;55959;51.244;5.724;2022-10-24T06:08:49;2.93;;;1.37;;
68921;SDS011;55959;51.244;5.724;2022-10-24T06:11:15;2.67;;;1.07;;
68921;SDS011;55959;51.244;5.724;2022-10-24T06:13:41;4.47;;;1.50;;
68921;SDS011;55959;51.244;5.724;2022-10-24T06:16:08;2.40;;;1.00;;
68921;SDS011;55959;51.244;5.724;2022-10-24T06:18:35;2.30;;;0.70;;
68921;SDS011;55959;51.244;5.724;2022-10-24T06:21:03;3.27;;;1.20;;
68921;SDS011;55959;51.244;5.724;2022-10-24T06:23:31;2.50;;;1.20;;
68921;SDS011;55959;51.244;5.724;2022-10-24T06:25:57;3.87;;;1.30;;
68921;SDS011;55959;51.244;5.724;2022-10-24T06:28:23;2.80;;;1.10;;
68921;SDS011;55959;51.244;5.724;2022-10-24T06:30:49;4.60;;;1.37;;
68921;SDS011;55959;51.244;5.724;2022-10-24T06:33:16;4.53;;;1.30;;
68921;SDS011;55959;51.244;5.724;2022-10-24T06:35:42;6.10;;;1.10;;
68921;SDS011;55959;51.244;5.724;2022-10-24T06:38:08;3.43;;;1.20;;
68921;SDS011;55959;51.244;5.724;2022-10-24T06:40:35;3.43;;;1.10;;
68921;SDS011;55959;51.244;5.724;2022-10-24T06:43:03;3.60;;;1.37;;
68921;SDS011;55959;51.244;5.724;2022-10-24T06:45:30;4.20;;;0.87;;
68921;SDS011;55959;51.244;5.724;2022-10-24T06:47:55;4.83;;;0.97;;
68921;SDS011;55959;51.244;5.724;2022-10-24T06:50:21;3.70;;;1.10;;
68921;SDS011;55959;51.244;5.724;2022-10-24T06:52:47;4.80;;;1.17;;
68921;SDS011;55959;51.244;5.724;2022-10-24T06:55:13;4.03;;;1.20;;
68921;SDS011;55959;51.244;5.724;2022-10-24T06:57:38;2.73;;;1.00;;
68921;SDS011;55959;51.244;5.724;2022-10-24T07:00:04;3.37;;;1.27;;
68921;SDS011;55959;51.244;5.724;2022-10-24T07:02:32;4.57;;;1.10;;
68921;SDS011;55959;51.244;5.724;2022-10-24T07:04:58;3.83;;;1.23;;
68921;SDS011;55959;51.244;5.724;2022-10-24T07:07:24;3.03;;;1.30;;
68921;SDS011;55959;51.244;5.724;2022-10-24T07:09:54;5.07;;;1.27;;
68921;SDS011;55959;51.244;5.724;2022-10-24T07:12:22;4.27;;;0.90;;
68921;SDS011;55959;51.244;5.724;2022-10-24T07:14:48;3.27;;;1.20;;
68921;SDS011;55959;51.244;5.724;2022-10-24T07:17:15;3.47;;;1.20;;
68921;SDS011;55959;51.244;5.724;2022-10-24T07:19:41;3.37;;;1.10;;
68921;SDS011;55959;51.244;5.724;2022-10-24T07:22:08;4.47;;;1.20;;
68921;SDS011;55959;51.244;5.724;2022-10-24T07:24:39;5.20;;;1.53;;
68921;SDS011;55959;51.244;5.724;2022-10-24T07:27:04;5.27;;;1.10;;
68921;SDS011;55959;51.244;5.724;2022-10-24T07:29:30;5.13;;;0.90;;
68921;SDS011;55959;51.244;5.724;2022-10-24T07:31:56;3.57;;;1.37;;
68921;SDS011;55959;51.244;5.724;2022-10-24T07:34:23;5.23;;;1.40;;
68921;SDS011;55959;51.244;5.724;2022-10-24T07:36:49;4.13;;;1.20;;
68921;SDS011;55959;51.244;5.724;2022-10-24T07:39:14;2.90;;;1.17;;
68921;SDS011;55959;51.244;5.724;2022-10-24T07:41:40;3.63;;;1.30;;
68921;SDS011;55959;51.244;5.724;2022-10-24T07:44:06;4.50;;;1.30;;
68921;SDS011;55959;51.244;5.724;2022-10-24T07:46:35;3.20;;;1.10;;
68921;SDS011;55959;51.244;5.724;2022-10-24T07:49:01;5.07;;;1.67;;
68921;SDS011;55959;51.244;5.724;2022-10-24T07:51:27;4.77;;;1.40;;
68921;SDS011;55959;51.244;5.724;2022-10-24T07:53:54;4.40;;;1.77;;
68921;SDS011;55959;51.244;5.724;2022-10-24T07:56:21;4.83;;;1.60;;
68921;SDS011;55959;51.244;5.724;2022-10-24T07:58:47;4.50;;;1.47;;
68921;SDS011;55959;51.244;5.724;2022-10-24T08:01:15;4.67;;;1.43;;
68921;SDS011;55959;51.244;5.724;2022-10-24T08:03:46;4.33;;;1.17;;
68921;SDS011;55959;51.244;5.724;2022-10-24T08:06:13;3.90;;;1.30;;
68921;SDS011;55959;51.244;5.724;2022-10-24T08:08:45;4.10;;;1.40;;
68921;SDS011;55959;51.244;5.724;2022-10-24T08:11:12;3.67;;;1.00;;
68921;SDS011;55959;51.244;5.724;2022-10-24T08:13:40;4.77;;;1.67;;
68921;SDS011;55959;51.244;5.724;2022-10-24T08:16:07;6.07;;;1.33;;
68921;SDS011;55959;51.244;5.724;2022-10-24T08:18:35;6.77;;;1.60;;
68921;SDS011;55959;51.244;5.724;2022-10-24T08:21:03;7.87;;;2.10;;
68921;SDS011;55959;51.244;5.724;2022-10-24T08:23:31;4.37;;;1.50;;
68921;SDS011;55959;51.244;5.724;2022-10-24T08:25:59;4.73;;;1.47;;
68921;SDS011;55959;51.244;5.724;2022-10-24T08:28:29;4.33;;;1.03;;
68921;SDS011;55959;51.244;5.724;2022-10-24T08:30:58;4.40;;;1.30;;
68921;SDS011;55959;51.244;5.724;2022-10-24T08:33:28;4.20;;;1.30;;
68921;SDS011;55959;51.244;5.724;2022-10-24T08:35:56;6.93;;;1.70;;
68921;SDS011;55959;51.244;5.724;2022-10-24T08:38:25;6.70;;;1.63;;
68921;SDS011;55959;51.244;5.724;2022-10-24T08:40:52;4.97;;;1.40;;
68921;SDS011;55959;51.244;5.724;2022-10-24T08:43:18;3.50;;;1.40;;
68921;SDS011;55959;51.244;5.724;2022-10-24T08:48:44;6.10;;;1.90;;
68921;SDS011;55959;51.244;5.724;2022-10-24T08:54:02;5.23;;;1.67;;
68921;SDS011;55959;51.244;5.724;2022-10-24T08:56:31;8.47;;;1.90;;
68921;SDS011;55959;51.244;5.724;2022-10-24T08:58:58;4.27;;;1.30;;
68921;SDS011;55959;51.244;5.724;2022-10-24T09:03:57;6.10;;;1.60;;
68921;SDS011;55959;51.244;5.724;2022-10-24T09:06:29;4.90;;;1.83;;
68921;SDS011;55959;51.244;5.724;2022-10-24T09:08:57;4.50;;;1.40;;
68921;SDS011;55959;51.244;5.724;2022-10-24T09:11:39;9.30;;;1.70;;
68921;SDS011;55959;51.244;5.724;2022-10-24T09:14:13;3.97;;;1.70;;
68921;SDS011;55959;51.244;5.724;2022-10-24T09:16:41;7.20;;;1.97;;
68921;SDS011;55959;51.244;5.724;2022-10-24T09:19:17;4.97;;;1.40;;
68921;SDS011;55959;51.244;5.724;2022-10-24T09:21:47;4.07;;;1.40;;
68921;SDS011;55959;51.244;5.724;2022-10-24T09:24:23;5.00;;;1.50;;
68921;SDS011;55959;51.244;5.724;2022-10-24T09:27:23;5.87;;;1.37;;
68921;SDS011;55959;51.244;5.724;2022-10-24T09:29:54;3.27;;;1.30;;
68921;SDS011;55959;51.244;5.724;2022-10-24T09:32:24;7.13;;;1.50;;
68921;SDS011;55959;51.244;5.724;2022-10-24T09:34:54;4.93;;;1.70;;
68921;SDS011;55959;51.244;5.724;2022-10-24T09:37:35;6.00;;;1.63;;
68921;SDS011;55959;51.244;5.724;2022-10-24T09:40:04;5.07;;;1.60;;
68921;SDS011;55959;51.244;5.724;2022-10-24T09:42:47;3.28;;;1.17;;
68921;SDS011;55959;51.244;5.724;2022-10-24T09:45:39;6.60;;;1.75;;
68921;SDS011;55959;51.244;5.724;2022-10-24T09:48:17;6.03;;;1.85;;
68921;SDS011;55959;51.244;5.724;2022-10-24T09:50:54;7.22;;;1.70;;
68921;SDS011;55959;51.244;5.724;2022-10-24T09:53:39;8.18;;;2.20;;
68921;SDS011;55959;51.244;5.724;2022-10-24T09:56:42;9.57;;;1.80;;
68921;SDS011;55959;51.244;5.724;2022-10-24T09:59:16;5.78;;;1.65;;
68921;SDS011;55959;51.244;5.724;2022-10-24T10:01:42;6.10;;;2.00;;
68921;SDS011;55959;51.244;5.724;2022-10-24T10:04:11;5.03;;;1.60;;
68921;SDS011;55959;51.244;5.724;2022-10-24T10:06:45;4.88;;;1.75;;
68921;SDS011;55959;51.244;5.724;2022-10-24T10:09:14;3.63;;;1.38;;
68921;SDS011;55959;51.244;5.724;2022-10-24T10:11:57;4.85;;;1.50;;
68921;SDS011;55959;51.244;5.724;2022-10-24T10:14:25;6.80;;;1.45;;
68921;SDS011;55959;51.244;5.724;2022-10-24T10:16:58;6.93;;;1.73;;
68921;SDS011;55959;51.244;5.724;2022-10-24T10:19:31;5.45;;;1.60;;
68921;SDS011;55959;51.244;5.724;2022-10-24T10:22:05;6.75;;;2.13;;
68921;SDS011;55959;51.244;5.724;2022-10-24T10:24:45;5.13;;;1.50;;
68921;SDS011;55959;51.244;5.724;2022-10-24T10:35:43;9.23;;;1.80;;
68921;SDS011;55959;51.244;5.724;2022-10-24T10:44:53;4.55;;;1.30;;
68921;SDS011;55959;51.244;5.724;2022-10-24T10:47:31;7.53;;;1.83;;
68921;SDS011;55959;51.244;5.724;2022-10-24T10:50:40;4.63;;;1.50;;
68921;SDS011;55959;51.244;5.724;2022-10-24T11:07:56;7.05;;;1.63;;
68921;SDS011;55959;51.244;5.724;2022-10-24T11:10:46;5.68;;;1.70;;
68921;SDS011;55959;51.244;5.724;2022-10-24T11:13:38;5.63;;;2.00;;
68921;SDS011;55959;51.244;5.724;2022-10-24T11:16:11;4.97;;;1.90;;
68921;SDS011;55959;51.244;5.724;2022-10-24T11:18:44;4.95;;;1.70;;
68921;SDS011;55959;51.244;5.724;2022-10-24T11:21:13;4.43;;;1.73;;
68921;SDS011;55959;51.244;5.724;2022-10-24T11:23:52;6.45;;;1.73;;
68921;SDS011;55959;51.244;5.724;2022-10-24T11:26:33;4.97;;;1.55;;
68921;SDS011;55959;51.244;5.724;2022-10-24T11:29:10;8.80;;;2.33;;
68921;SDS011;55959;51.244;5.724;2022-10-24T11:31:49;4.55;;;1.70;;
68921;SDS011;55959;51.244;5.724;2022-10-24T11:37:23;4.88;;;1.70;;
68921;SDS011;55959;51.244;5.724;2022-10-24T11:39:53;4.38;;;1.52;;
68921;SDS011;55959;51.244;5.724;2022-10-24T11:42:36;4.78;;;1.58;;
68921;SDS011;55959;51.244;5.724;2022-10-24T11:45:20;4.97;;;1.73;;
68921;SDS011;55959;51.244;5.724;2022-10-24T11:51:03;6.35;;;1.73;;
68921;SDS011;55959;51.244;5.724;2022-10-24T11:56:30;5.03;;;1.48;;
68921;SDS011;55959;51.244;5.724;2022-10-24T11:59:04;5.22;;;1.65;;
68921;SDS011;55959;51.244;5.724;2022-10-24T12:04:07;5.07;;;1.88;;
68921;SDS011;55959;51.244;5.724;2022-10-24T12:19:03;5.35;;;1.40;;
68921;SDS011;55959;51.244;5.724;2022-10-24T12:21:43;4.07;;;1.30;;
68921;SDS011;55959;51.244;5.724;2022-10-24T12:24:20;4.15;;;1.48;;
68921;SDS011;55959;51.244;5.724;2022-10-24T12:27:03;4.03;;;1.50;;
68921;SDS011;55959;51.244;5.724;2022-10-24T12:29:33;5.30;;;1.80;;
68921;SDS011;55959;51.244;5.724;2022-10-24T12:35:00;3.83;;;1.20;;
68921;SDS011;55959;51.244;5.724;2022-10-24T12:39:53;5.07;;;1.30;;
68921;SDS011;55959;51.244;5.724;2022-10-24T12:44:49;5.70;;;1.60;;
68921;SDS011;55959;51.244;5.724;2022-10-24T12:47:43;4.07;;;1.30;;
68921;SDS011;55959;51.244;5.724;2022-10-24T12:51:34;3.70;;;1.13;;
68921;SDS011;55959;51.244;5.724;2022-10-24T12:59:23;4.60;;;1.15;;
68921;SDS011;55959;51.244;5.724;2022-10-24T13:19:17;5.82;;;1.35;;
68921;SDS011;55959;51.244;5.724;2022-10-24T13:21:49;4.45;;;1.48;;
68921;SDS011;55959;51.244;5.724;2022-10-24T13:34:29;2.83;;;1.17;;
68921;SDS011;55959;51.244;5.724;2022-10-24T13:39:56;3.93;;;1.40;;
68921;SDS011;55959;51.244;5.724;2022-10-24T13:42:42;3.73;;;1.13;;
68921;SDS011;55959;51.244;5.724;2022-10-24T13:47:50;5.10;;;1.10;;
68921;SDS011;55959;51.244;5.724;2022-10-24T13:50:37;3.97;;;1.20;;
68921;SDS011;55959;51.244;5.724;2022-10-24T13:53:16;3.23;;;0.93;;
68921;SDS011;55959;51.244;5.724;2022-10-24T13:55:47;3.87;;;1.03;;
68921;SDS011;55959;51.244;5.724;2022-10-24T13:58:18;2.90;;;0.90;;
68921;SDS011;55959;51.244;5.724;2022-10-24T14:00:57;2.80;;;0.93;;
68921;SDS011;55959;51.244;5.724;2022-10-24T14:03:26;2.80;;;0.77;;
68921;SDS011;55959;51.244;5.724;2022-10-24T14:05:59;3.40;;;1.00;;
68921;SDS011;55959;51.244;5.724;2022-10-24T14:10:56;4.50;;;0.97;;
68921;SDS011;55959;51.244;5.724;2022-10-24T14:13:37;3.77;;;1.17;;
68921;SDS011;55959;51.244;5.724;2022-10-24T14:16:08;4.23;;;1.00;;
68921;SDS011;55959;51.244;5.724;2022-10-24T14:18:35;2.20;;;1.00;;
68921;SDS011;55959;51.244;5.724;2022-10-24T14:21:03;4.27;;;1.40;;
68921;SDS011;55959;51.244;5.724;2022-10-24T14:23:37;2.23;;;1.20;;
68921;SDS011;55959;51.244;5.724;2022-10-24T14:26:12;3.80;;;1.30;;
68921;SDS011;55959;51.244;5.724;2022-10-24T14:28:47;4.50;;;1.10;;
68921;SDS011;55959;51.244;5.724;2022-10-24T14:31:38;2.97;;;0.90;;
68921;SDS011;55959;51.244;5.724;2022-10-24T14:34:03;4.23;;;1.43;;
68921;SDS011;55959;51.244;5.724;2022-10-24T14:36:34;3.53;;;1.20;;
68921;SDS011;55959;51.244;5.724;2022-10-24T14:39:02;4.63;;;1.23;;
68921;SDS011;55959;51.244;5.724;2022-10-24T14:41:34;3.90;;;1.10;;
68921;SDS011;55959;51.244;5.724;2022-10-24T14:44:04;4.40;;;1.30;;
68921;SDS011;55959;51.244;5.724;2022-10-24T14:51:55;4.17;;;1.20;;
68921;SDS011;55959;51.244;5.724;2022-10-24T14:54:33;3.57;;;1.00;;
68921;SDS011;55959;51.244;5.724;2022-10-24T14:57:00;2.83;;;0.90;;
68921;SDS011;55959;51.244;5.724;2022-10-24T14:59:30;3.83;;;1.40;;
68921;SDS011;55959;51.244;5.724;2022-10-24T15:02:06;4.23;;;1.30;;
68921;SDS011;55959;51.244;5.724;2022-10-24T15:04:48;3.60;;;1.10;;
68921;SDS011;55959;51.244;5.724;2022-10-24T15:09:57;3.73;;;1.07;;
68921;SDS011;55959;51.244;5.724;2022-10-24T15:13:02;3.20;;;1.30;;
68921;SDS011;55959;51.244;5.724;2022-10-24T15:18:31;3.03;;;1.20;;
68921;SDS011;55959;51.244;5.724;2022-10-24T15:21:16;2.63;;;1.17;;
68921;SDS011;55959;51.244;5.724;2022-10-24T15:23:56;4.23;;;1.30;;
68921;SDS011;55959;51.244;5.724;2022-10-24T15:31:29;3.47;;;1.10;;
68921;SDS011;55959;51.244;5.724;2022-10-24T15:33:57;3.10;;;1.37;;
68921;SDS011;55959;51.244;5.724;2022-10-24T15:36:27;3.37;;;1.30;;
68921;SDS011;55959;51.244;5.724;2022-10-24T15:38:56;4.27;;;1.20;;
68921;SDS011;55959;51.244;5.724;2022-10-24T15:41:25;1.67;;;0.70;;
68921;SDS011;55959;51.244;5.724;2022-10-24T15:43:52;2.50;;;0.97;;
68921;SDS011;55959;51.244;5.724;2022-10-24T15:46:18;2.87;;;0.90;;
68921;SDS011;55959;51.244;5.724;2022-10-24T15:48:45;2.67;;;0.87;;
68921;SDS011;55959;51.244;5.724;2022-10-24T15:51:12;2.17;;;0.80;;
68921;SDS011;55959;51.244;5.724;2022-10-24T15:53:42;4.20;;;1.20;;
68921;SDS011;55959;51.244;5.724;2022-10-24T15:56:09;2.97;;;1.33;;
68921;SDS011;55959;51.244;5.724;2022-10-24T15:58:36;2.53;;;0.80;;
68921;SDS011;55959;51.244;5.724;2022-10-24T16:01:04;2.73;;;1.00;;
68921;SDS011;55959;51.244;5.724;2022-10-24T16:03:30;2.23;;;0.97;;
68921;SDS011;55959;51.244;5.724;2022-10-24T16:05:59;2.53;;;0.90;;
68921;SDS011;55959;51.244;5.724;2022-10-24T16:08:28;2.90;;;1.10;;
68921;SDS011;55959;51.244;5.724;2022-10-24T16:10:55;3.73;;;1.10;;
68921;SDS011;55959;51.244;5.724;2022-10-24T16:13:21;3.77;;;1.07;;
68921;SDS011;55959;51.244;5.724;2022-10-24T16:15:47;2.30;;;1.00;;
68921;SDS011;55959;51.244;5.724;2022-10-24T16:18:14;2.67;;;1.20;;
68921;SDS011;55959;51.244;5.724;2022-10-24T16:20:40;4.53;;;1.30;;
68921;SDS011;55959;51.244;5.724;2022-10-24T16:23:06;3.30;;;1.07;;
68921;SDS011;55959;51.244;5.724;2022-10-24T16:25:34;4.70;;;1.10;;
68921;SDS011;55959;51.244;5.724;2022-10-24T16:28:02;5.53;;;1.30;;
68921;SDS011;55959;51.244;5.724;2022-10-24T16:30:30;3.63;;;1.10;;
68921;SDS011;55959;51.244;5.724;2022-10-24T16:32:57;3.13;;;1.13;;
68921;SDS011;55959;51.244;5.724;2022-10-24T16:35:24;4.27;;;1.23;;
68921;SDS011;55959;51.244;5.724;2022-10-24T16:37:54;3.03;;;1.37;;
68921;SDS011;55959;51.244;5.724;2022-10-24T16:40:22;2.67;;;1.30;;
68921;SDS011;55959;51.244;5.724;2022-10-24T16:42:51;3.30;;;1.20;;
68921;SDS011;55959;51.244;5.724;2022-10-24T16:45:19;3.27;;;1.27;;
68921;SDS011;55959;51.244;5.724;2022-10-24T16:47:45;3.87;;;1.33;;
68921;SDS011;55959;51.244;5.724;2022-10-24T16:50:16;3.13;;;0.80;;
68921;SDS011;55959;51.244;5.724;2022-10-24T16:52:52;3.00;;;0.90;;
68921;SDS011;55959;51.244;5.724;2022-10-24T16:55:20;4.07;;;1.10;;
68921;SDS011;55959;51.244;5.724;2022-10-24T16:57:47;3.20;;;1.30;;
68921;SDS011;55959;51.244;5.724;2022-10-24T17:00:13;5.63;;;1.40;;
68921;SDS011;55959;51.244;5.724;2022-10-24T17:02:44;4.30;;;1.77;;
68921;SDS011;55959;51.244;5.724;2022-10-24T17:05:15;4.43;;;1.67;;
68921;SDS011;55959;51.244;5.724;2022-10-24T17:07:46;4.60;;;1.53;;
68921;SDS011;55959;51.244;5.724;2022-10-24T17:10:12;5.23;;;1.70;;
68921;SDS011;55959;51.244;5.724;2022-10-24T17:12:43;5.57;;;1.73;;
68921;SDS011;55959;51.244;5.724;2022-10-24T17:15:13;2.83;;;1.20;;
68921;SDS011;55959;51.244;5.724;2022-10-24T17:17:41;3.77;;;1.10;;
68921;SDS011;55959;51.244;5.724;2022-10-24T17:20:08;3.40;;;1.20;;
68921;SDS011;55959;51.244;5.724;2022-10-24T17:22:36;3.33;;;1.30;;
68921;SDS011;55959;51.244;5.724;2022-10-24T17:25:04;3.63;;;1.20;;
68921;SDS011;55959;51.244;5.724;2022-10-24T17:27:31;2.00;;;1.30;;
68921;SDS011;55959;51.244;5.724;2022-10-24T17:29:57;2.27;;;1.23;;
68921;SDS011;55959;51.244;5.724;2022-10-24T17:32:23;4.13;;;1.47;;